Time;durP1;ratioP1;P1;durP2;ratioP2;P2;SDS_P1;SDS_P2;PMS_P1;PMS_P2;Temp;Humidity;BMP_temperature;BMP_pressure;BME280_temperature;BME280_humidity;BME280_pressure;Samples;Min_cycle;Max_cycle;Signal;HPM_P1;HPM_P2
2022/06/09 00:00:12;;;;;;;5.22;1.77;;;;;;;;;;5032957;28;97400;-73
2022/06/09 00:02:40;;;;;;;7.60;2.08;;;;;;;;;;5027827;28;96715;-74
2022/06/09 00:05:07;;;;;;;4.00;2.00;;;;;;;;;;5033068;28;96886;-74
2022/06/09 00:07:33;;;;;;;7.88;2.03;;;;;;;;;;5032057;28;96614;-74
2022/06/09 00:10:10;;;;;;;4.78;1.77;;;;;;;;;;5016596;28;95579;-74
2022/06/09 00:12:37;;;;;;;5.57;2.08;;;;;;;;;;5007863;28;97356;-74
2022/06/09 00:15:05;;;;;;;3.95;1.85;;;;;;;;;;5022049;28;95313;-74
2022/06/09 00:17:31;;;;;;;2.92;1.50;;;;;;;;;;5031864;28;96948;-74
2022/06/09 00:19:58;;;;;;;9.93;2.40;;;;;;;;;;5030227;28;97559;-74
2022/06/09 00:22:24;;;;;;;5.07;1.55;;;;;;;;;;5030682;28;95575;-74
2022/06/09 00:24:51;;;;;;;4.90;2.00;;;;;;;;;;5028838;28;97286;-74
2022/06/09 00:27:17;;;;;;;3.17;1.45;;;;;;;;;;5031703;28;97331;-74
2022/06/09 00:29:43;;;;;;;2.42;1.40;;;;;;;;;;5035041;28;95813;-74
2022/06/09 00:32:09;;;;;;;3.60;1.60;;;;;;;;;;5031632;28;97302;-74
2022/06/09 00:34:36;;;;;;;3.63;2.05;;;;;;;;;;5030032;28;96105;-74
2022/06/09 00:37:02;;;;;;;2.42;1.40;;;;;;;;;;5022618;28;96728;-73
2022/06/09 00:39:28;;;;;;;4.35;1.60;;;;;;;;;;5013604;28;97240;-73
2022/06/09 00:41:56;;;;;;;3.53;1.40;;;;;;;;;;5031664;28;95373;-74
2022/06/09 00:44:27;;;;;;;4.88;1.95;;;;;;;;;;5013395;28;96763;-74
2022/06/09 00:46:58;;;;;;;2.03;1.70;;;;;;;;;;5011447;28;97682;-74
2022/06/09 00:49:27;;;;;;;4.68;1.75;;;;;;;;;;5011721;28;95356;-74
2022/06/09 00:51:55;;;;;;;3.03;1.77;;;;;;;;;;5014047;28;96856;-73
2022/06/09 00:54:31;;;;;;;3.78;1.92;;;;;;;;;;5011592;28;95369;-72
2022/06/09 00:57:04;;;;;;;4.30;2.00;;;;;;;;;;4998471;28;95564;-72
2022/06/09 00:59:32;;;;;;;7.53;2.00;;;;;;;;;;5025155;28;96622;-74
2022/06/09 01:01:59;;;;;;;4.45;2.05;;;;;;;;;;5034246;28;96138;-74
2022/06/09 01:04:29;;;;;;;5.75;1.77;;;;;;;;;;5034864;28;96894;-73
2022/06/09 01:06:58;;;;;;;4.85;2.35;;;;;;;;;;5034164;28;97552;-73
2022/06/09 01:09:26;;;;;;;3.10;1.80;;;;;;;;;;5034319;28;95235;-73
2022/06/09 01:11:53;;;;;;;3.97;1.98;;;;;;;;;;5032384;28;96779;-74
2022/06/09 01:14:23;;;;;;;4.82;2.17;;;;;;;;;;5036975;28;97146;-74
2022/06/09 01:17:04;;;;;;;5.03;2.00;;;;;;;;;;5034481;28;96827;-73
2022/06/09 01:19:30;;;;;;;3.13;1.90;;;;;;;;;;5034752;28;97388;-74
2022/06/09 01:22:19;;;;;;;8.63;2.58;;;;;;;;;;5032224;28;95399;-73
2022/06/09 01:24:58;;;;;;;2.85;1.60;;;;;;;;;;5034696;28;95729;-73
2022/06/09 01:27:39;;;;;;;4.63;2.10;;;;;;;;;;5027329;28;97461;-73
2022/06/09 01:30:10;;;;;;;3.58;1.60;;;;;;;;;;5033743;28;96486;-73
2022/06/09 01:32:38;;;;;;;4.75;2.00;;;;;;;;;;5014610;28;97044;-73
2022/06/09 01:35:10;;;;;;;5.60;1.90;;;;;;;;;;5014210;28;97273;-74
2022/06/09 01:37:36;;;;;;;;;;;;;;;;;;5017834;28;95437;-75
2022/06/09 01:40:05;;;;;;;4.25;2.13;;;;;;;;;;5016563;28;126682;-74
2022/06/09 01:42:31;;;;;;;3.90;2.05;;;;;;;;;;5013513;28;95410;-74
2022/06/09 01:44:59;;;;;;;6.85;2.50;;;;;;;;;;5014348;28;96922;-73
2022/06/09 01:47:30;;;;;;;5.45;2.03;;;;;;;;;;5015666;28;97454;-74
2022/06/09 01:50:02;;;;;;;5.22;2.25;;;;;;;;;;5033350;28;95276;-74
2022/06/09 01:52:29;;;;;;;5.25;2.20;;;;;;;;;;5033795;28;96844;-74
2022/06/09 01:54:56;;;;;;;5.07;2.22;;;;;;;;;;5033283;28;96971;-73
2022/06/09 01:57:26;;;;;;;4.05;1.95;;;;;;;;;;5017331;28;95232;-73
2022/06/09 01:59:54;;;;;;;6.32;2.00;;;;;;;;;;5017525;28;96807;-73
2022/06/09 02:02:28;;;;;;;5.22;2.28;;;;;;;;;;5014844;28;95503;-74
2022/06/09 02:05:04;;;;;;;6.32;2.60;;;;;;;;;;5023225;28;96485;-73
2022/06/09 02:07:32;;;;;;;5.70;2.15;;;;;;;;;;5014946;28;97277;-74
2022/06/09 02:10:10;;;;;;;4.95;1.98;;;;;;;;;;5017360;28;96449;-73
2022/06/09 02:12:36;;;;;;;3.83;2.22;;;;;;;;;;5034136;28;95699;-73
2022/06/09 02:15:04;;;;;;;5.05;2.22;;;;;;;;;;5033291;28;96238;-73
2022/06/09 02:17:40;;;;;;;3.85;2.40;;;;;;;;;;5033355;28;95768;-73
2022/06/09 02:20:07;;;;;;;6.30;2.47;;;;;;;;;;5029200;28;96792;-73
2022/06/09 02:22:33;;;;;;;2.78;2.08;;;;;;;;;;5033993;28;97294;-73
2022/06/09 02:24:59;;;;;;;3.60;2.22;;;;;;;;;;5023721;28;96748;-73
2022/06/09 02:27:26;;;;;;;3.75;1.80;;;;;;;;;;5017897;28;97387;-73
2022/06/09 02:29:52;;;;;;;3.47;2.10;;;;;;;;;;5031348;28;95391;-72
2022/06/09 02:32:18;;;;;;;3.70;2.03;;;;;;;;;;5024260;28;96846;-74
2022/06/09 02:34:45;;;;;;;5.15;2.97;;;;;;;;;;5013528;28;97086;-73
2022/06/09 02:37:11;;;;;;;5.53;2.55;;;;;;;;;;5025013;28;95244;-75
2022/06/09 02:39:37;;;;;;;6.60;2.47;;;;;;;;;;5033834;28;96381;-74
2022/06/09 02:42:04;;;;;;;4.65;2.45;;;;;;;;;;5035189;28;97392;-74
2022/06/09 02:44:30;;;;;;;5.90;2.40;;;;;;;;;;5032293;28;96999;-74
2022/06/09 02:46:56;;;;;;;10.18;2.85;;;;;;;;;;5032423;28;97433;-74
2022/06/09 02:49:23;;;;;;;5.63;2.53;;;;;;;;;;5015865;28;95357;-74
2022/06/09 02:51:49;;;;;;;5.28;2.95;;;;;;;;;;5028429;28;96849;-74
2022/06/09 02:54:15;;;;;;;4.55;2.42;;;;;;;;;;5013030;28;97273;-74
2022/06/09 02:56:42;;;;;;;3.72;2.25;;;;;;;;;;5024349;28;96961;-74
2022/06/09 02:59:09;;;;;;;5.07;2.85;;;;;;;;;;5014916;28;95346;-74
2022/06/09 03:01:36;;;;;;;4.85;2.58;;;;;;;;;;5030519;28;96105;-73
2022/06/09 03:04:05;;;;;;;4.30;2.50;;;;;;;;;;5033775;28;95574;-74
2022/06/09 03:06:31;;;;;;;3.58;2.55;;;;;;;;;;5030699;28;97585;-74
2022/06/09 03:08:58;;;;;;;4.13;2.55;;;;;;;;;;5013239;28;95471;-73
2022/06/09 03:11:25;;;;;;;6.30;2.28;;;;;;;;;;5012613;28;95657;-74
2022/06/09 03:13:51;;;;;;;4.68;2.50;;;;;;;;;;4994758;28;97400;-73
2022/06/09 03:16:18;;;;;;;5.28;2.67;;;;;;;;;;5020879;28;95197;-74
2022/06/09 03:18:44;;;;;;;5.63;2.38;;;;;;;;;;5014134;28;96945;-74
2022/06/09 03:21:11;;;;;;;3.72;2.25;;;;;;;;;;4994357;28;97380;-73
2022/06/09 03:23:38;;;;;;;6.00;2.40;;;;;;;;;;5012877;28;95388;-74
2022/06/09 03:26:04;;;;;;;6.40;2.22;;;;;;;;;;5020045;28;96998;-74
2022/06/09 03:28:31;;;;;;;6.75;2.40;;;;;;;;;;5032471;28;95399;-73
2022/06/09 03:30:59;;;;;;;6.20;2.92;;;;;;;;;;5033088;28;96885;-74
2022/06/09 03:33:25;;;;;;;5.38;2.70;;;;;;;;;;5031752;28;97242;-74
2022/06/09 03:35:52;;;;;;;2.55;1.90;;;;;;;;;;5032265;28;95429;-74
2022/06/09 03:38:18;;;;;;;4.15;2.28;;;;;;;;;;5032426;28;95855;-74
2022/06/09 03:40:44;;;;;;;4.38;2.30;;;;;;;;;;5032206;28;97290;-74
2022/06/09 03:43:11;;;;;;;5.68;2.13;;;;;;;;;;5033007;28;95331;-72
2022/06/09 03:45:37;;;;;;;4.75;2.63;;;;;;;;;;5031697;28;96846;-74
2022/06/09 03:48:04;;;;;;;6.95;2.55;;;;;;;;;;5021045;28;97471;-72
2022/06/09 03:50:31;;;;;;;4.32;2.28;;;;;;;;;;5012509;28;97139;-72
2022/06/09 03:52:58;;;;;;;4.78;2.28;;;;;;;;;;5012375;28;97471;-72
2022/06/09 03:55:24;;;;;;;2.67;1.83;;;;;;;;;;5015867;28;95577;-72
2022/06/09 03:57:51;;;;;;;3.70;1.80;;;;;;;;;;5031096;28;96992;-73
2022/06/09 04:00:19;;;;;;;4.95;2.30;;;;;;;;;;5031843;28;96089;-73
2022/06/09 04:02:46;;;;;;;4.30;2.28;;;;;;;;;;5032014;28;95195;-73
2022/06/09 04:05:13;;;;;;;4.18;2.20;;;;;;;;;;5031256;28;96790;-72
2022/06/09 04:07:40;;;;;;;4.03;2.00;;;;;;;;;;5023316;28;97378;-72
2022/06/09 04:10:06;;;;;;;4.35;2.40;;;;;;;;;;5013781;28;95412;-72
2022/06/09 04:12:34;;;;;;;2.50;1.83;;;;;;;;;;5011815;28;97454;-73
2022/06/09 04:15:01;;;;;;;3.15;1.75;;;;;;;;;;5016535;28;95500;-73
2022/06/09 04:17:27;;;;;;;5.60;2.45;;;;;;;;;;5031539;28;96873;-73
2022/06/09 04:19:54;;;;;;;2.83;1.63;;;;;;;;;;5031680;28;97389;-73
2022/06/09 04:22:20;;;;;;;4.13;1.90;;;;;;;;;;5031352;28;95338;-73
2022/06/09 04:24:46;;;;;;;3.58;1.95;;;;;;;;;;5029291;28;97101;-72
2022/06/09 04:27:13;;;;;;;6.93;1.95;;;;;;;;;;5024704;28;97498;-73
2022/06/09 04:29:39;;;;;;;3.72;1.90;;;;;;;;;;5020720;28;95460;-73
2022/06/09 04:32:06;;;;;;;3.75;2.10;;;;;;;;;;5037040;27;95877;-73
2022/06/09 04:34:32;;;;;;;2.35;1.67;;;;;;;;;;5033168;28;95439;-72
2022/06/09 04:36:59;;;;;;;3.03;1.77;;;;;;;;;;5032853;28;96769;-73
2022/06/09 04:39:25;;;;;;;2.35;1.77;;;;;;;;;;5035042;28;97342;-73
2022/06/09 20:17:34;;;;;;;3.30;1.25;;;;;;;;;;5068515;27;1293177;-72
2022/06/09 20:20:00;;;;;;;1.58;1.10;;;;;;;;;;5075187;27;97141;-72
2022/06/09 20:22:27;;;;;;;3.55;1.38;;;;;;;;;;5075412;27;95447;-73
2022/06/09 20:24:53;;;;;;;4.47;1.33;;;;;;;;;;5088490;27;97136;-73
2022/06/09 20:27:21;;;;;;;3.38;1.30;;;;;;;;;;5087622;27;97143;-73
2022/06/09 20:29:48;;;;;;;2.53;1.10;;;;;;;;;;5089541;27;95651;-72
2022/06/09 20:32:16;;;;;;;7.90;1.40;;;;;;;;;;5086309;27;96727;-73
2022/06/09 20:34:43;;;;;;;2.10;1.30;;;;;;;;;;5082927;27;97554;-72
2022/06/09 20:37:18;;;;;;;3.83;1.45;;;;;;;;;;5090827;27;95535;-72
2022/06/09 20:39:44;;;;;;;3.13;1.50;;;;;;;;;;5089594;27;97314;-73
2022/06/09 20:42:11;;;;;;;5.43;1.75;;;;;;;;;;5082782;27;95301;-72
2022/06/09 20:44:37;;;;;;;3.50;1.45;;;;;;;;;;5086396;27;96760;-72
2022/06/09 20:47:22;;;;;;;2.58;1.40;;;;;;;;;;5081835;27;97612;-72
2022/06/09 20:49:52;;;;;;;2.97;1.50;;;;;;;;;;5083326;27;96537;-71
2022/06/09 20:52:18;;;;;;;3.13;1.40;;;;;;;;;;5081894;27;96730;-73
2022/06/09 20:54:45;;;;;;;8.20;1.75;;;;;;;;;;5082672;27;96633;-72
2022/06/09 20:57:11;;;;;;;2.97;1.60;;;;;;;;;;5080673;27;95514;-73
2022/06/09 20:59:40;;;;;;;4.53;1.80;;;;;;;;;;5079809;27;96187;-73
2022/06/09 21:02:07;;;;;;;4.13;1.65;;;;;;;;;;5069583;27;95423;-73
2022/06/09 21:04:33;;;;;;;6.00;1.55;;;;;;;;;;5085099;27;96744;-73
2022/06/09 21:07:00;;;;;;;5.35;1.42;;;;;;;;;;5087626;27;97299;-73
2022/06/09 21:09:26;;;;;;;5.63;1.50;;;;;;;;;;5077277;27;95349;-73
2022/06/09 21:20:14;;;;;;;2.60;1.30;;;;;;;;;;5089011;27;96905;-72
2022/06/09 21:22:41;;;;;;;2.38;1.40;;;;;;;;;;5090702;27;97568;-74
2022/06/09 21:25:14;;;;;;;4.88;1.17;;;;;;;;;;5089862;27;95991;-73
2022/06/09 21:27:41;;;;;;;5.88;1.98;;;;;;;;;;5081736;27;97141;-73
2022/06/09 21:30:13;;;;;;;2.88;1.20;;;;;;;;;;5075358;27;95300;-72
2022/06/09 21:32:42;;;;;;;2.40;1.30;;;;;;;;;;5076780;27;98318;-72
2022/06/09 21:35:16;;;;;;;3.88;1.45;;;;;;;;;;5069980;27;96875;-72
2022/06/09 21:37:42;;;;;;;6.95;1.30;;;;;;;;;;5068328;27;95262;-71
2022/06/09 21:40:10;;;;;;;4.43;1.70;;;;;;;;;;5057190;27;97265;-72
2022/06/09 21:42:37;;;;;;;3.30;1.50;;;;;;;;;;5071455;27;97351;-72
2022/06/09 21:45:03;;;;;;;1.17;0.95;;;;;;;;;;5076503;27;95306;-72
2022/06/09 21:47:30;;;;;;;0.98;0.98;;;;;;;;;;5067245;27;97562;-73
2022/06/09 21:49:56;;;;;;;4.82;1.30;;;;;;;;;;5075464;27;95360;-72
2022/06/09 21:52:22;;;;;;;2.67;1.33;;;;;;;;;;5066051;27;97258;-73
2022/06/09 21:54:49;;;;;;;8.35;1.63;;;;;;;;;;5073850;27;96886;-73
2022/06/09 21:57:15;;;;;;;3.38;1.17;;;;;;;;;;5074053;27;96527;-72
2022/06/09 21:59:42;;;;;;;3.28;1.10;;;;;;;;;;5075621;27;96937;-72
2022/06/09 22:02:08;;;;;;;1.95;1.15;;;;;;;;;;5074391;27;97440;-72
2022/06/09 22:04:35;;;;;;;2.13;1.20;;;;;;;;;;5072955;27;95471;-72
2022/06/09 22:07:03;;;;;;;1.63;0.82;;;;;;;;;;5075850;27;96389;-73
2022/06/09 22:09:30;;;;;;;5.05;1.38;;;;;;;;;;5073965;27;96151;-73
2022/06/09 22:11:57;;;;;;;3.20;1.08;;;;;;;;;;5075162;27;96693;-72
2022/06/09 22:14:23;;;;;;;3.75;1.30;;;;;;;;;;5074157;27;97410;-72
2022/06/09 22:16:50;;;;;;;5.28;1.02;;;;;;;;;;5074624;27;95229;-72
2022/06/09 22:19:16;;;;;;;2.40;1.40;;;;;;;;;;5074920;27;98136;-72
2022/06/09 22:21:42;;;;;;;5.80;1.17;;;;;;;;;;5075061;27;97383;-72
2022/06/09 22:24:09;;;;;;;2.80;1.10;;;;;;;;;;5074065;27;95194;-72
2022/06/09 22:26:36;;;;;;;3.95;1.52;;;;;;;;;;5074703;27;96806;-72
2022/06/09 22:29:03;;;;;;;6.93;1.65;;;;;;;;;;5076511;27;95426;-72
2022/06/09 22:31:30;;;;;;;3.65;1.10;;;;;;;;;;5072511;27;96708;-72
2022/06/09 22:33:56;;;;;;;4.03;1.30;;;;;;;;;;5073971;27;97394;-72
2022/06/09 22:36:23;;;;;;;6.78;1.60;;;;;;;;;;5075031;27;95244;-73
2022/06/09 22:38:50;;;;;;;5.55;1.20;;;;;;;;;;5072639;27;97553;-71
2022/06/09 22:41:17;;;;;;;1.75;1.10;;;;;;;;;;5072259;27;97684;-73
2022/06/09 22:43:44;;;;;;;2.90;1.20;;;;;;;;;;5064800;27;95364;-73
2022/06/09 22:46:10;;;;;;;3.35;1.33;;;;;;;;;;5068549;27;96817;-72
2022/06/09 22:48:37;;;;;;;11.77;1.60;;;;;;;;;;5074718;27;97473;-72
2022/06/09 22:51:03;;;;;;;5.25;1.25;;;;;;;;;;5074297;27;95823;-72
2022/06/09 22:53:30;;;;;;;8.40;1.30;;;;;;;;;;5073310;27;97403;-72
2022/06/09 22:56:08;;;;;;;2.97;1.30;;;;;;;;;;5073569;27;95432;-73
2022/06/09 22:58:46;;;;;;;3.45;1.33;;;;;;;;;;5069961;27;96677;-73
2022/06/09 23:01:13;;;;;;;6.32;1.48;;;;;;;;;;5073066;27;96155;-73
2022/06/09 23:03:41;;;;;;;6.78;1.48;;;;;;;;;;5070144;27;95579;-72
2022/06/09 23:06:10;;;;;;;2.60;1.20;;;;;;;;;;5074715;27;96019;-72
2022/06/09 23:08:38;;;;;;;7.80;1.73;;;;;;;;;;5072096;27;97277;-72
2022/06/09 23:11:04;;;;;;;8.10;1.98;;;;;;;;;;5077983;27;95112;-73
2022/06/09 23:13:31;;;;;;;4.63;1.73;;;;;;;;;;5074310;27;97530;-73
2022/06/09 23:16:05;;;;;;;5.28;1.58;;;;;;;;;;5055503;27;95254;-72
2022/06/09 23:18:31;;;;;;;3.25;1.38;;;;;;;;;;5064268;27;96715;-72
2022/06/09 23:20:58;;;;;;;4.47;1.60;;;;;;;;;;5074163;27;98128;-72
2022/06/09 23:23:24;;;;;;;4.13;1.67;;;;;;;;;;5074017;27;95318;-72
2022/06/09 23:25:58;;;;;;;3.65;1.60;;;;;;;;;;5073455;27;96812;-72
2022/06/09 23:28:25;;;;;;;2.63;1.48;;;;;;;;;;5059468;27;97369;-72
2022/06/09 23:30:51;;;;;;;3.75;2.08;;;;;;;;;;5074126;27;95420;-72
2022/06/09 23:33:18;;;;;;;6.53;1.73;;;;;;;;;;5075994;27;95985;-72
2022/06/09 23:35:45;;;;;;;2.35;1.27;;;;;;;;;;5067348;27;96936;-72
2022/06/09 23:38:13;;;;;;;5.32;1.70;;;;;;;;;;5073334;27;96551;-72
2022/06/09 23:40:42;;;;;;;2.00;1.40;;;;;;;;;;5073620;27;97297;-72
2022/06/09 23:43:14;;;;;;;3.20;1.58;;;;;;;;;;5073944;27;95492;-72
2022/06/09 23:45:46;;;;;;;3.10;1.55;;;;;;;;;;5072023;27;97031;-72
2022/06/09 23:48:12;;;;;;;;;;;;;;;;;;5073387;27;97319;-72
2022/06/09 23:50:40;;;;;;;17.85;1.92;;;;;;;;;;5071640;27;117296;-72
2022/06/09 23:53:07;;;;;;;4.80;1.50;;;;;;;;;;5074076;27;96918;-72
2022/06/09 23:55:35;;;;;;;6.25;1.77;;;;;;;;;;5075605;27;97431;-72
2022/06/09 23:58:02;;;;;;;4.25;1.60;;;;;;;;;;5069143;27;96566;-72
